createdAt,value
2023-10-29T00:00:51.434Z,315
2023-10-29T00:01:52.028Z,316
2023-10-29T00:02:52.800Z,312
2023-10-29T00:03:51.294Z,313
2023-10-29T00:04:51.567Z,317
2023-10-29T00:05:52.246Z,337
2023-10-29T00:06:50.660Z,329
2023-10-29T00:07:51.617Z,315
2023-10-29T00:08:52.088Z,314
2023-10-29T00:09:52.644Z,316
2023-10-29T00:10:50.639Z,318
2023-10-29T00:11:52.060Z,324
2023-10-29T00:14:52.231Z,328
2023-10-29T00:15:51.167Z,325
2023-10-29T00:16:50.182Z,327
2023-10-29T00:17:51.725Z,321
2023-10-29T00:18:51.544Z,324
2023-10-29T00:20:50.994Z,329
2023-10-29T00:21:50.901Z,324
2023-10-29T00:22:50.048Z,320
2023-10-29T00:23:50.939Z,326
2023-10-29T00:24:52.126Z,325
2023-10-29T00:25:51.752Z,329
2023-10-29T00:26:51.763Z,322
2023-10-29T00:27:51.340Z,314
2023-10-29T00:28:51.549Z,321
2023-10-29T00:29:51.742Z,330
2023-10-29T00:30:51.182Z,324
2023-10-29T00:31:51.889Z,318
2023-10-29T00:32:50.802Z,322
2023-10-29T00:33:51.428Z,326
2023-10-29T00:34:50.216Z,322
2023-10-29T00:36:49.757Z,314
2023-10-29T00:37:49.797Z,318
2023-10-29T00:38:50.882Z,324
2023-10-29T00:39:50.409Z,316
2023-10-29T00:40:50.151Z,325
2023-10-29T00:41:51.028Z,321
2023-10-29T00:42:50.514Z,325
2023-10-29T00:44:51.556Z,328
2023-10-29T00:45:53.072Z,326
2023-10-29T00:46:51.154Z,328
2023-10-29T00:47:51.319Z,325
2023-10-29T00:49:50.362Z,328
2023-10-29T00:50:51.162Z,318
2023-10-29T00:51:50.203Z,312
2023-10-29T00:52:50.264Z,319
2023-10-29T00:53:51.261Z,336
2023-10-29T00:54:51.649Z,342
2023-10-29T00:55:52.072Z,339
2023-10-29T00:56:51.023Z,336
2023-10-29T00:57:51.293Z,330
2023-10-29T00:58:50.758Z,327
2023-10-29T00:59:51.571Z,333
2023-10-29T01:00:52.916Z,335
2023-10-29T01:01:52.205Z,332
2023-10-29T01:02:51.983Z,327
2023-10-29T01:03:51.449Z,330
2023-10-29T01:05:52.464Z,322
2023-10-29T01:06:52.281Z,324
2023-10-29T01:07:50.899Z,325
2023-10-29T01:08:51.254Z,318
2023-10-29T01:09:49.338Z,320
2023-10-29T01:11:55.079Z,324
2023-10-29T01:13:16.826Z,316
2023-10-29T01:14:03.448Z,315
2023-10-29T01:14:51.282Z,326
2023-10-29T01:15:53.240Z,328
2023-10-29T01:16:53.496Z,329
2023-10-29T01:17:51.385Z,331
2023-10-29T01:18:51.294Z,329
2023-10-29T01:19:50.079Z,336
2023-10-29T01:20:50.711Z,339
2023-10-29T01:21:50.486Z,342
2023-10-29T01:22:49.848Z,327
2023-10-29T01:23:49.026Z,329
2023-10-29T01:24:49.661Z,338
2023-10-29T01:25:49.334Z,328
2023-10-29T01:26:50.929Z,327
2023-10-29T01:27:51.278Z,321
2023-10-29T01:28:50.760Z,315
2023-10-29T01:29:51.407Z,319
2023-10-29T01:30:50.877Z,322
2023-10-29T01:31:51.508Z,326
2023-10-29T01:32:51.143Z,325
2023-10-29T01:33:50.023Z,329
2023-10-29T01:34:51.307Z,331
2023-10-29T01:35:50.185Z,326
2023-10-29T01:36:49.843Z,320
2023-10-29T01:37:50.598Z,322
2023-10-29T01:38:50.398Z,326
2023-10-29T01:39:51.397Z,321
2023-10-29T01:40:51.341Z,330
2023-10-29T01:41:51.812Z,332
2023-10-29T01:42:49.638Z,325
2023-10-29T01:43:49.368Z,326
2023-10-29T01:44:51.137Z,323
2023-10-29T01:45:52.316Z,325
2023-10-29T01:46:52.229Z,331
2023-10-29T01:47:52.398Z,332
2023-10-29T01:48:51.431Z,334
2023-10-29T01:49:49.965Z,320
2023-10-29T01:50:51.008Z,311
2023-10-29T01:51:51.341Z,325
2023-10-29T01:52:51.079Z,333
2023-10-29T01:53:52.078Z,332
2023-10-29T01:54:51.352Z,336
2023-10-29T01:55:51.364Z,333
2023-10-29T01:56:50.227Z,330
2023-10-29T01:57:51.620Z,341
2023-10-29T01:58:51.197Z,336
2023-10-29T01:59:50.524Z,326
2023-10-29T02:00:52.333Z,325
2023-10-29T02:01:52.501Z,318
2023-10-29T02:02:51.187Z,321
2023-10-29T02:03:50.977Z,323
2023-10-29T02:05:52.157Z,332
2023-10-29T02:06:51.188Z,336
2023-10-29T02:07:50.829Z,331
2023-10-29T02:08:50.679Z,321
2023-10-29T02:09:51.696Z,327
2023-10-29T02:10:51.226Z,323
2023-10-29T02:11:51.664Z,315
2023-10-29T02:12:52.266Z,321
2023-10-29T02:13:51.512Z,332
2023-10-29T02:14:50.991Z,328
2023-10-29T02:15:51.264Z,322
2023-10-29T02:17:50.669Z,324
2023-10-29T02:18:50.463Z,325
2023-10-29T02:19:50.757Z,328
2023-10-29T02:20:51.847Z,329
2023-10-29T02:21:51.257Z,334
2023-10-29T02:22:51.397Z,331
2023-10-29T02:23:51.018Z,332
2023-10-29T02:24:49.716Z,333
2023-10-29T02:25:50.959Z,328
2023-10-29T02:26:50.455Z,323
2023-10-29T02:27:49.406Z,334
2023-10-29T02:29:51.494Z,331
2023-10-29T02:30:51.702Z,324
2023-10-29T02:31:49.694Z,313
2023-10-29T02:32:50.888Z,314
2023-10-29T02:33:50.805Z,319
2023-10-29T02:34:50.267Z,329
2023-10-29T02:36:51.744Z,331
2023-10-29T02:37:51.210Z,327
2023-10-29T02:38:51.782Z,321
2023-10-29T02:39:51.755Z,325
2023-10-29T02:40:51.932Z,332
2023-10-29T02:41:50.714Z,326
2023-10-29T02:42:51.405Z,328
2023-10-29T02:43:51.909Z,329
2023-10-29T02:44:52.038Z,332
2023-10-29T02:45:51.709Z,334
2023-10-29T02:46:51.446Z,330
2023-10-29T02:47:51.755Z,328
2023-10-29T02:48:51.031Z,327
2023-10-29T02:49:51.580Z,326
2023-10-29T02:50:51.622Z,337
2023-10-29T02:51:51.886Z,325
2023-10-29T02:52:51.793Z,311
2023-10-29T02:53:52.333Z,318
2023-10-29T02:54:52.195Z,321
2023-10-29T02:55:51.664Z,335
2023-10-29T02:56:49.958Z,338
2023-10-29T02:57:51.071Z,336
2023-10-29T02:58:51.155Z,337
2023-10-29T02:59:51.292Z,339
2023-10-29T03:00:51.866Z,325
2023-10-29T03:01:51.608Z,328
2023-10-29T03:02:51.244Z,325
2023-10-29T03:03:50.902Z,329
2023-10-29T03:04:51.658Z,321
2023-10-29T03:05:57.214Z,325
2023-10-29T03:06:54.715Z,332
2023-10-29T03:07:51.582Z,331
2023-10-29T03:08:51.669Z,329
2023-10-29T03:09:50.876Z,321
2023-10-29T03:10:50.893Z,323
2023-10-29T03:11:49.616Z,328
2023-10-29T03:12:51.190Z,331
2023-10-29T03:13:51.210Z,330
2023-10-29T03:14:52.049Z,326
2023-10-29T03:15:52.807Z,332
2023-10-29T03:16:53.501Z,327
2023-10-29T03:17:52.833Z,322
2023-10-29T03:18:50.849Z,317
2023-10-29T03:19:51.862Z,323
2023-10-29T03:20:51.840Z,331
2023-10-29T03:21:51.487Z,340
2023-10-29T03:22:51.658Z,338
2023-10-29T03:23:49.365Z,330
2023-10-29T03:24:50.925Z,325
2023-10-29T03:25:52.006Z,327
2023-10-29T03:26:51.712Z,324
2023-10-29T03:27:49.982Z,318
2023-10-29T03:28:49.899Z,325
2023-10-29T03:29:50.765Z,326
2023-10-29T03:30:49.883Z,346
2023-10-29T03:32:51.632Z,343
2023-10-29T03:33:50.543Z,329
2023-10-29T03:34:51.355Z,323
2023-10-29T03:35:51.808Z,326
2023-10-29T03:36:51.048Z,334
2023-10-29T03:37:51.123Z,339
2023-10-29T03:38:50.701Z,342
2023-10-29T03:39:50.223Z,337
2023-10-29T03:40:51.845Z,335
2023-10-29T03:41:51.491Z,332
2023-10-29T03:42:51.423Z,334
2023-10-29T03:43:52.394Z,332
2023-10-29T03:44:51.894Z,325
2023-10-29T03:45:52.493Z,321
2023-10-29T03:46:52.366Z,333
2023-10-29T03:47:50.893Z,346
2023-10-29T03:48:51.544Z,337
2023-10-29T03:49:51.655Z,343
2023-10-29T03:50:51.141Z,342
2023-10-29T03:51:50.577Z,346
2023-10-29T03:52:51.568Z,344
2023-10-29T03:53:51.445Z,328
2023-10-29T03:54:52.262Z,323
2023-10-29T03:55:52.285Z,331
2023-10-29T03:56:50.650Z,335
2023-10-29T03:57:51.191Z,328
2023-10-29T03:58:51.138Z,320
2023-10-29T03:59:51.048Z,332
2023-10-29T04:01:51.531Z,326
2023-10-29T04:02:51.270Z,328
2023-10-29T04:03:52.389Z,332
2023-10-29T04:05:05.730Z,324
2023-10-29T04:05:50.207Z,318
2023-10-29T04:06:49.013Z,320
2023-10-29T04:07:49.129Z,329
2023-10-29T04:08:50.416Z,324
2023-10-29T04:09:51.505Z,326
2023-10-29T04:10:52.316Z,333
2023-10-29T04:11:51.446Z,330
2023-10-29T04:12:49.981Z,322
2023-10-29T04:13:50.796Z,324
2023-10-29T04:14:50.258Z,331
2023-10-29T04:15:50.406Z,325
2023-10-29T04:16:50.906Z,324
2023-10-29T04:17:50.640Z,321
2023-10-29T04:18:49.750Z,327
2023-10-29T04:19:49.196Z,322
2023-10-29T04:20:51.111Z,331
2023-10-29T04:21:51.185Z,338
2023-10-29T04:22:50.835Z,325
2023-10-29T04:23:49.438Z,316
2023-10-29T04:24:50.196Z,318
2023-10-29T04:25:50.056Z,331
2023-10-29T04:26:51.090Z,344
2023-10-29T04:27:50.360Z,346
2023-10-29T04:28:51.177Z,347
2023-10-29T04:29:51.509Z,346
2023-10-29T04:30:50.003Z,331
2023-10-29T04:31:49.250Z,330
2023-10-29T04:32:51.057Z,326
2023-10-29T04:33:50.581Z,322
2023-10-29T04:34:51.202Z,318
2023-10-29T04:35:51.781Z,314
2023-10-29T04:36:52.115Z,327
2023-10-29T04:37:52.194Z,332
2023-10-29T04:38:51.558Z,326
2023-10-29T04:39:52.352Z,318
2023-10-29T04:40:52.255Z,312
2023-10-29T04:41:51.699Z,323
2023-10-29T04:42:49.718Z,326
2023-10-29T04:43:49.982Z,329
2023-10-29T04:44:50.121Z,320
2023-10-29T04:45:52.077Z,324
2023-10-29T04:46:52.166Z,337
2023-10-29T04:47:52.337Z,335
2023-10-29T04:48:51.434Z,334
2023-10-29T04:49:51.120Z,331
2023-10-29T04:50:51.169Z,320
2023-10-29T04:51:52.064Z,330
2023-10-29T04:52:52.231Z,337
2023-10-29T04:53:51.544Z,327
2023-10-29T04:54:52.485Z,324
2023-10-29T04:55:51.601Z,322
2023-10-29T04:56:51.339Z,320
2023-10-29T04:57:50.168Z,314
2023-10-29T04:58:50.779Z,330
2023-10-29T04:59:51.143Z,329
2023-10-29T05:01:51.616Z,331
2023-10-29T05:02:51.821Z,320
2023-10-29T05:03:51.637Z,334
2023-10-29T05:04:52.070Z,336
2023-10-29T05:05:51.659Z,338
2023-10-29T05:06:51.575Z,337
2023-10-29T05:07:49.259Z,338
2023-10-29T05:08:51.235Z,334
2023-10-29T05:09:52.020Z,331
2023-10-29T05:10:52.395Z,323
2023-10-29T05:12:51.717Z,318
2023-10-29T05:13:52.038Z,326
2023-10-29T05:14:52.138Z,331
2023-10-29T05:15:51.646Z,340
2023-10-29T05:16:50.098Z,342
2023-10-29T05:17:49.455Z,338
2023-10-29T05:18:50.405Z,326
2023-10-29T05:19:51.088Z,324
2023-10-29T05:20:50.850Z,319
2023-10-29T05:21:49.815Z,334
2023-10-29T05:22:50.952Z,325
2023-10-29T05:23:51.577Z,332
2023-10-29T05:24:52.047Z,329
2023-10-29T05:25:51.424Z,314
2023-10-29T05:26:52.387Z,313
2023-10-29T05:27:51.909Z,324
2023-10-29T05:28:52.009Z,314
2023-10-29T05:29:51.285Z,316
2023-10-29T05:30:51.620Z,317
2023-10-29T05:31:50.807Z,326
2023-10-29T05:34:51.572Z,324
2023-10-29T05:35:49.971Z,321
2023-10-29T05:36:51.090Z,319
2023-10-29T05:38:50.009Z,320
2023-10-29T05:39:51.519Z,321
2023-10-29T05:40:51.900Z,327
2023-10-29T05:41:50.759Z,334
2023-10-29T05:42:51.397Z,330
2023-10-29T05:43:50.847Z,326
2023-10-29T05:44:51.021Z,325
2023-10-29T05:45:51.904Z,328
2023-10-29T05:46:51.529Z,320
2023-10-29T05:47:50.375Z,318
2023-10-29T05:48:50.863Z,332
2023-10-29T05:49:50.613Z,346
2023-10-29T05:50:50.842Z,340
2023-10-29T05:51:51.350Z,331
2023-10-29T05:52:51.899Z,322
2023-10-29T05:53:52.129Z,323
2023-10-29T05:54:51.447Z,322
2023-10-29T05:55:51.879Z,329
2023-10-29T05:56:50.592Z,331
2023-10-29T05:57:51.434Z,320
2023-10-29T05:58:51.266Z,321
2023-10-29T05:59:51.146Z,316
2023-10-29T06:00:52.950Z,320
2023-10-29T06:01:52.069Z,325
2023-10-29T06:02:51.853Z,317
2023-10-29T06:03:52.464Z,312
2023-10-29T06:04:51.314Z,319
2023-10-29T06:05:51.914Z,314
2023-10-29T06:06:51.809Z,316
2023-10-29T06:07:52.774Z,324
2023-10-29T06:08:52.617Z,329
2023-10-29T06:09:51.318Z,327
2023-10-29T06:10:52.227Z,328
2023-10-29T06:11:50.882Z,330
2023-10-29T06:12:50.248Z,328
2023-10-29T06:13:51.052Z,326
2023-10-29T06:14:50.986Z,322
2023-10-29T06:15:51.769Z,330
2023-10-29T06:17:50.148Z,323
2023-10-29T06:18:50.489Z,327
2023-10-29T06:20:51.338Z,331
2023-10-29T06:21:50.100Z,326
2023-10-29T06:22:50.898Z,322
2023-10-29T06:23:50.804Z,320
2023-10-29T06:24:51.593Z,322
2023-10-29T06:25:50.473Z,316
2023-10-29T06:26:50.665Z,334
2023-10-29T06:27:51.262Z,341
2023-10-29T06:28:51.063Z,337
2023-10-29T06:29:52.025Z,345
2023-10-29T06:30:51.426Z,337
2023-10-29T06:32:51.976Z,332
2023-10-29T06:33:51.593Z,324
2023-10-29T06:34:51.725Z,328
2023-10-29T06:35:50.685Z,337
2023-10-29T06:36:51.342Z,332
2023-10-29T06:37:51.053Z,314
2023-10-29T06:38:53.083Z,323
2023-10-29T06:39:52.915Z,328
2023-10-29T06:40:52.295Z,327
2023-10-29T06:41:52.009Z,323
2023-10-29T06:42:51.803Z,327
2023-10-29T06:43:51.427Z,325
2023-10-29T06:44:51.981Z,321
2023-10-29T06:45:52.639Z,334
2023-10-29T06:46:51.821Z,330
2023-10-29T06:47:51.566Z,337
2023-10-29T06:48:52.042Z,327
2023-10-29T06:49:51.438Z,325
2023-10-29T06:50:52.133Z,330
2023-10-29T06:52:52.110Z,326
2023-10-29T06:53:51.557Z,331
2023-10-29T06:54:51.759Z,325
2023-10-29T06:55:51.705Z,320
2023-10-29T06:57:48.763Z,328
2023-10-29T06:58:51.122Z,337
2023-10-29T06:59:52.135Z,334
2023-10-29T07:00:53.578Z,331
2023-10-29T07:01:52.767Z,328
2023-10-29T07:02:52.731Z,330
2023-10-29T07:03:52.101Z,325
2023-10-29T07:04:51.520Z,329
2023-10-29T07:05:51.925Z,335
2023-10-29T07:06:52.094Z,330
2023-10-29T07:07:51.807Z,328
2023-10-29T07:08:51.471Z,336
2023-10-29T07:09:51.706Z,327
2023-10-29T07:10:51.631Z,321
2023-10-29T07:11:52.334Z,325
2023-10-29T07:12:52.267Z,327
2023-10-29T07:13:51.309Z,324
2023-10-29T07:14:52.779Z,327
2023-10-29T07:15:54.040Z,319
2023-10-29T07:16:53.508Z,327
2023-10-29T07:17:53.724Z,336
2023-10-29T07:18:53.201Z,334
2023-10-29T07:19:54.190Z,335
2023-10-29T07:20:53.665Z,338
2023-10-29T07:21:53.186Z,330
2023-10-29T07:22:52.081Z,321
2023-10-29T07:23:52.912Z,323
2023-10-29T07:24:52.501Z,317
2023-10-29T07:25:52.390Z,324
2023-10-29T07:26:51.682Z,335
2023-10-29T07:27:52.719Z,343
2023-10-29T07:28:52.202Z,325
2023-10-29T07:29:51.736Z,321
2023-10-29T07:30:51.658Z,333
2023-10-29T07:31:51.262Z,338
2023-10-29T07:32:50.572Z,331
2023-10-29T07:33:51.361Z,329
2023-10-29T07:34:52.929Z,317
2023-10-29T07:35:53.262Z,331
2023-10-29T07:36:52.527Z,332
2023-10-29T07:37:51.719Z,316
2023-10-29T07:38:50.323Z,318
2023-10-29T07:39:51.002Z,314
2023-10-29T07:40:51.987Z,334
2023-10-29T07:41:50.908Z,342
2023-10-29T07:42:51.666Z,332
2023-10-29T07:43:52.206Z,331
2023-10-29T07:44:52.024Z,327
2023-10-29T07:45:51.289Z,338
2023-10-29T07:46:52.251Z,323
2023-10-29T07:47:52.290Z,316
2023-10-29T07:48:52.095Z,319
2023-10-29T07:49:52.401Z,323
2023-10-29T07:50:50.752Z,331
2023-10-29T07:52:51.756Z,328
2023-10-29T07:53:52.064Z,341
2023-10-29T07:54:49.885Z,339
2023-10-29T07:55:51.532Z,328
2023-10-29T07:56:50.729Z,335
2023-10-29T07:58:51.554Z,331
2023-10-29T07:59:52.490Z,326
2023-10-29T08:00:53.146Z,328
2023-10-29T08:01:52.466Z,338
2023-10-29T08:02:51.193Z,329
2023-10-29T08:03:50.954Z,331
2023-10-29T08:04:50.618Z,335
2023-10-29T08:05:52.035Z,331
2023-10-29T08:06:52.707Z,327
2023-10-29T08:07:52.385Z,317
2023-10-29T08:08:51.997Z,331
2023-10-29T08:09:52.182Z,334
2023-10-29T08:10:51.446Z,339
2023-10-29T08:11:51.200Z,336
2023-10-29T08:12:51.263Z,327
2023-10-29T08:13:51.650Z,317
2023-10-29T08:14:52.137Z,321
2023-10-29T08:15:51.855Z,325
2023-10-29T08:16:52.548Z,326
2023-10-29T08:17:51.813Z,329
2023-10-29T08:18:51.797Z,317
2023-10-29T08:19:51.753Z,310
2023-10-29T08:20:50.748Z,312
2023-10-29T08:21:50.882Z,317
2023-10-29T08:22:50.084Z,314
2023-10-29T08:23:49.004Z,312
2023-10-29T08:24:50.107Z,322
2023-10-29T08:25:51.085Z,324
2023-10-29T08:26:52.020Z,323
2023-10-29T08:27:51.380Z,319
2023-10-29T08:28:50.865Z,316
2023-10-29T08:29:50.220Z,311
2023-10-29T08:30:48.834Z,315
2023-10-29T08:31:50.906Z,323
2023-10-29T08:32:51.004Z,330
2023-10-29T08:33:51.475Z,324
2023-10-29T08:34:51.703Z,317
2023-10-29T08:35:51.460Z,318
2023-10-29T08:36:51.171Z,323
2023-10-29T08:37:51.721Z,321
2023-10-29T08:39:50.327Z,324
2023-10-29T08:40:51.842Z,322
2023-10-29T08:41:51.184Z,319
2023-10-29T08:42:52.040Z,315
2023-10-29T08:43:52.013Z,310
2023-10-29T08:44:52.074Z,300
2023-10-29T08:45:53.141Z,301
2023-10-29T08:46:53.064Z,315
2023-10-29T08:47:52.293Z,323
2023-10-29T08:48:51.797Z,321
2023-10-29T08:49:52.567Z,328
2023-10-29T08:50:51.283Z,326
2023-10-29T08:51:51.877Z,311
2023-10-29T08:52:50.506Z,314
2023-10-29T08:54:52.271Z,326
2023-10-29T08:55:52.449Z,329
2023-10-29T08:56:50.782Z,327
2023-10-29T08:57:50.792Z,318
2023-10-29T08:58:52.047Z,308
2023-10-29T08:59:52.112Z,304
2023-10-29T09:00:52.038Z,327
2023-10-29T09:01:52.276Z,335
2023-10-29T09:02:51.629Z,328
2023-10-29T09:03:51.365Z,327
2023-10-29T09:04:50.724Z,330
2023-10-29T09:05:52.062Z,331
2023-10-29T09:06:52.464Z,328
2023-10-29T09:07:49.840Z,319
2023-10-29T09:08:50.113Z,322
2023-10-29T09:09:51.096Z,333
2023-10-29T09:10:51.042Z,323
2023-10-29T09:11:50.961Z,324
2023-10-29T09:12:51.420Z,317
2023-10-29T09:13:51.346Z,326
2023-10-29T09:14:52.036Z,335
2023-10-29T09:15:52.744Z,324
2023-10-29T09:16:52.085Z,330
2023-10-29T09:17:51.955Z,324
2023-10-29T09:18:51.469Z,323
2023-10-29T09:19:52.144Z,319
2023-10-29T09:20:52.808Z,323
2023-10-29T09:22:50.458Z,328
2023-10-29T09:23:49.139Z,324
2023-10-29T09:24:50.021Z,314
2023-10-29T09:25:51.470Z,333
2023-10-29T09:26:50.055Z,326
2023-10-29T09:27:51.190Z,322
2023-10-29T09:28:50.936Z,317
2023-10-29T09:29:51.957Z,328
2023-10-29T09:30:52.072Z,332
2023-10-29T09:31:51.616Z,329
2023-10-29T09:32:49.528Z,327
2023-10-29T09:33:49.307Z,319
2023-10-29T09:34:50.991Z,325
2023-10-29T09:35:51.496Z,328
2023-10-29T09:36:51.546Z,329
2023-10-29T09:37:49.813Z,319
2023-10-29T09:38:49.996Z,329
2023-10-29T09:39:49.753Z,331
2023-10-29T09:41:51.088Z,330
2023-10-29T09:42:50.978Z,335
2023-10-29T09:43:50.363Z,324
2023-10-29T09:44:50.876Z,322
2023-10-29T09:46:52.358Z,321
2023-10-29T09:47:51.676Z,322
2023-10-29T09:48:51.144Z,318
2023-10-29T09:50:52.607Z,329
2023-10-29T09:51:52.064Z,311
2023-10-29T09:52:52.677Z,309
2023-10-29T09:53:53.035Z,320
2023-10-29T09:54:52.683Z,326
2023-10-29T09:55:51.418Z,331
2023-10-29T09:56:51.867Z,337
2023-10-29T09:57:51.492Z,315
2023-10-29T09:58:50.384Z,309
2023-10-29T09:59:50.448Z,319
2023-10-29T10:00:52.275Z,314
2023-10-29T10:01:58.434Z,320
2023-10-29T10:02:54.896Z,321
2023-10-29T10:03:53.767Z,322
2023-10-29T10:04:53.123Z,319
2023-10-29T10:05:52.343Z,321
2023-10-29T10:06:50.518Z,318
2023-10-29T10:07:48.400Z,324
2023-10-29T10:08:48.450Z,327
2023-10-29T10:09:48.222Z,325
2023-10-29T10:10:50.796Z,319
2023-10-29T10:11:51.995Z,320
2023-10-29T10:12:50.349Z,310
2023-10-29T10:13:51.581Z,314
2023-10-29T10:14:49.794Z,309
2023-10-29T10:15:52.024Z,320
2023-10-29T10:16:52.330Z,332
2023-10-29T10:17:52.158Z,325
2023-10-29T10:18:53.215Z,323
2023-10-29T10:19:51.074Z,322
2023-10-29T10:20:52.299Z,317
2023-10-29T10:21:51.290Z,330
2023-10-29T10:22:51.604Z,322
2023-10-29T10:23:50.580Z,311
2023-10-29T10:24:49.896Z,314
2023-10-29T10:25:51.352Z,315
2023-10-29T10:26:51.319Z,314
2023-10-29T10:27:51.218Z,315
2023-10-29T10:28:52.275Z,311
2023-10-29T10:29:51.035Z,313
2023-10-29T10:30:52.322Z,320
2023-10-29T10:31:51.564Z,318
2023-10-29T10:32:50.454Z,319
2023-10-29T10:33:50.616Z,324
2023-10-29T10:34:51.631Z,321
2023-10-29T10:35:51.440Z,322
2023-10-29T10:36:51.999Z,325
2023-10-29T10:37:52.264Z,314
2023-10-29T10:38:50.746Z,309
2023-10-29T10:39:51.539Z,327
2023-10-29T10:40:51.727Z,325
2023-10-29T10:41:51.145Z,317
2023-10-29T10:42:51.432Z,313
2023-10-29T10:43:51.674Z,314
2023-10-29T10:44:52.341Z,309
2023-10-29T10:45:52.472Z,316
2023-10-29T10:46:52.166Z,310
2023-10-29T10:47:51.894Z,311
2023-10-29T10:48:50.942Z,301
2023-10-29T10:49:51.233Z,302
2023-10-29T10:50:50.968Z,318
2023-10-29T10:51:51.873Z,321
2023-10-29T10:52:51.939Z,315
2023-10-29T10:53:52.636Z,312
2023-10-29T10:54:52.254Z,317
2023-10-29T10:56:03.242Z,315
2023-10-29T10:56:50.053Z,311
2023-10-29T10:57:49.684Z,312
2023-10-29T10:59:50.387Z,309
2023-10-29T11:00:52.484Z,314
2023-10-29T11:01:52.524Z,311
2023-10-29T11:02:52.726Z,308
2023-10-29T11:03:52.872Z,318
2023-10-29T11:04:51.374Z,310
2023-10-29T11:05:52.582Z,314
2023-10-29T11:06:52.179Z,310
2023-10-29T11:07:52.105Z,309
2023-10-29T11:08:50.279Z,317
2023-10-29T11:09:51.045Z,321
2023-10-29T11:10:52.220Z,311
2023-10-29T11:11:51.764Z,306
2023-10-29T11:12:51.949Z,321
2023-10-29T11:13:51.793Z,318
2023-10-29T11:14:52.206Z,321
2023-10-29T11:15:53.083Z,329
2023-10-29T11:16:52.230Z,325
2023-10-29T11:17:52.757Z,318
2023-10-29T11:18:51.591Z,314
2023-10-29T11:19:52.111Z,308
2023-10-29T11:20:50.657Z,320
2023-10-29T11:21:51.590Z,316
2023-10-29T11:22:51.735Z,318
2023-10-29T11:23:51.861Z,320
2023-10-29T11:24:51.169Z,308
2023-10-29T11:25:50.792Z,304
2023-10-29T11:26:52.216Z,318
2023-10-29T11:27:52.707Z,324
2023-10-29T11:28:52.198Z,320
2023-10-29T11:29:52.336Z,314
2023-10-29T11:30:52.381Z,320
2023-10-29T11:31:52.333Z,316
2023-10-29T11:32:52.012Z,321
2023-10-29T11:33:52.432Z,313
2023-10-29T11:34:52.482Z,318
2023-10-29T11:35:51.940Z,325
2023-10-29T11:36:50.189Z,322
2023-10-29T11:37:50.719Z,328
2023-10-29T11:38:50.387Z,323
2023-10-29T11:39:50.060Z,319
2023-10-29T11:40:51.191Z,317
2023-10-29T11:41:50.085Z,309
2023-10-29T11:42:50.466Z,313
2023-10-29T11:43:51.443Z,321
2023-10-29T11:44:49.841Z,312
2023-10-29T11:45:51.313Z,310
2023-10-29T11:46:51.312Z,318
2023-10-29T11:47:51.994Z,321
2023-10-29T11:48:51.147Z,319
2023-10-29T11:49:51.229Z,308
2023-10-29T11:50:52.401Z,310
2023-10-29T11:51:52.122Z,314
2023-10-29T11:52:52.390Z,312
2023-10-29T11:53:51.796Z,310
2023-10-29T11:54:51.486Z,299
2023-10-29T11:55:52.423Z,302
2023-10-29T11:56:50.941Z,312
2023-10-29T11:59:52.522Z,325
2023-10-29T12:00:52.847Z,311
2023-10-29T12:01:52.693Z,308
2023-10-29T12:02:53.498Z,318
2023-10-29T12:03:52.672Z,313
2023-10-29T12:04:51.972Z,307
2023-10-29T12:06:51.897Z,318
2023-10-29T12:07:51.909Z,320
2023-10-29T12:08:51.338Z,317
2023-10-29T12:09:50.890Z,325
2023-10-29T12:10:51.893Z,314
2023-10-29T12:11:51.446Z,308
2023-10-29T12:12:50.848Z,305
2023-10-29T12:13:52.121Z,312
2023-10-29T12:14:51.539Z,315
2023-10-29T12:15:52.641Z,317
2023-10-29T12:17:51.108Z,311
2023-10-29T12:18:51.878Z,307
2023-10-29T12:19:52.164Z,309
2023-10-29T12:20:52.040Z,307
2023-10-29T12:21:52.093Z,310
2023-10-29T12:22:51.941Z,314
2023-10-29T12:23:51.708Z,317
2023-10-29T12:24:51.490Z,315
2023-10-29T12:25:51.075Z,320
2023-10-29T12:26:51.502Z,312
2023-10-29T12:27:52.360Z,302
2023-10-29T12:28:51.276Z,315
2023-10-29T12:29:51.512Z,327
2023-10-29T12:30:52.670Z,324
2023-10-29T12:31:52.450Z,321
2023-10-29T12:32:51.897Z,324
2023-10-29T12:33:52.214Z,328
2023-10-29T12:34:50.917Z,322
2023-10-29T12:35:51.772Z,317
2023-10-29T12:37:52.898Z,315
2023-10-29T12:38:52.058Z,309
2023-10-29T12:40:52.521Z,307
2023-10-29T12:41:52.623Z,312
2023-10-29T12:42:51.939Z,318
2023-10-29T12:43:52.400Z,315
2023-10-29T12:44:50.791Z,314
2023-10-29T12:45:51.222Z,309
2023-10-29T12:46:51.893Z,300
2023-10-29T12:47:52.651Z,307
2023-10-29T12:48:52.341Z,325
2023-10-29T12:49:52.884Z,329
2023-10-29T12:50:51.850Z,324
2023-10-29T12:51:51.814Z,326
2023-10-29T12:52:51.556Z,328
2023-10-29T12:53:50.474Z,323
2023-10-29T12:54:51.239Z,310
2023-10-29T12:55:51.050Z,305
2023-10-29T12:56:50.367Z,312
2023-10-29T12:57:50.718Z,323
2023-10-29T12:58:51.403Z,325
2023-10-29T12:59:51.049Z,319
2023-10-29T13:00:54.483Z,324
2023-10-29T13:01:54.076Z,323
2023-10-29T13:02:53.154Z,324
2023-10-29T13:03:51.707Z,323
2023-10-29T13:04:52.717Z,320
2023-10-29T13:05:51.196Z,332
2023-10-29T13:06:51.735Z,328
2023-10-29T13:07:51.591Z,322
2023-10-29T13:09:52.476Z,327
2023-10-29T13:10:51.452Z,330
2023-10-29T13:11:52.325Z,335
2023-10-29T13:12:51.573Z,327
2023-10-29T13:14:02.366Z,325
2023-10-29T13:14:49.301Z,318
2023-10-29T13:16:50.579Z,314
2023-10-29T13:17:51.154Z,305
2023-10-29T13:18:51.688Z,310
2023-10-29T13:19:51.507Z,311
2023-10-29T13:20:51.201Z,322
2023-10-29T13:21:51.895Z,324
2023-10-29T13:22:51.567Z,312
2023-10-29T13:23:51.406Z,324
2023-10-29T13:25:50.742Z,319
2023-10-29T13:26:51.302Z,317
2023-10-29T13:27:51.141Z,313
2023-10-29T13:28:51.531Z,316
2023-10-29T13:29:50.596Z,321
2023-10-29T13:30:50.721Z,327
2023-10-29T13:31:51.960Z,317
2023-10-29T13:32:50.717Z,305
2023-10-29T13:33:51.835Z,306
2023-10-29T13:34:52.007Z,310
2023-10-29T13:35:51.630Z,312
2023-10-29T13:36:51.144Z,317
2023-10-29T13:37:51.507Z,311
2023-10-29T13:38:51.774Z,319
2023-10-29T13:39:51.833Z,317
2023-10-29T13:40:51.601Z,316
2023-10-29T13:41:51.436Z,325
2023-10-29T13:42:51.602Z,320
2023-10-29T13:43:50.510Z,314
2023-10-29T13:44:50.558Z,317
2023-10-29T13:46:51.706Z,315
2023-10-29T13:47:51.240Z,313
2023-10-29T13:48:50.425Z,316
2023-10-29T13:50:50.730Z,317
2023-10-29T13:51:50.737Z,320
2023-10-29T13:52:50.144Z,316
2023-10-29T13:53:49.104Z,313
2023-10-29T13:54:50.660Z,319
2023-10-29T13:55:51.220Z,314
2023-10-29T13:56:50.685Z,319
2023-10-29T13:57:50.676Z,331
2023-10-29T13:58:51.290Z,330
2023-10-29T13:59:51.882Z,318
2023-10-29T14:00:52.893Z,310
2023-10-29T14:01:52.846Z,308
2023-10-29T14:02:54.112Z,311
2023-10-29T14:03:53.690Z,308
2023-10-29T14:04:52.589Z,327
2023-10-29T14:05:51.898Z,329
2023-10-29T14:06:53.070Z,326
2023-10-29T14:07:52.438Z,322
2023-10-29T14:08:51.805Z,313
2023-10-29T14:09:51.355Z,316
2023-10-29T14:10:51.068Z,320
2023-10-29T14:11:49.913Z,314
2023-10-29T14:12:51.220Z,309
2023-10-29T14:13:51.176Z,313
2023-10-29T14:14:52.310Z,321
2023-10-29T14:15:52.237Z,308
2023-10-29T14:16:52.553Z,301
2023-10-29T14:17:50.206Z,306
2023-10-29T14:18:48.820Z,310
2023-10-29T14:19:50.858Z,309
2023-10-29T14:20:50.515Z,305
2023-10-29T14:21:50.314Z,313
2023-10-29T14:22:50.595Z,317
2023-10-29T14:23:50.944Z,313
2023-10-29T14:24:51.459Z,309
2023-10-29T14:25:51.912Z,306
2023-10-29T14:26:50.722Z,316
2023-10-29T14:27:51.559Z,314
2023-10-29T14:28:51.263Z,310
2023-10-29T14:29:51.278Z,306
2023-10-29T14:30:52.667Z,313